Terminal Aerodrome Forecast
Issued by NWS

Home | Current Version | Previous Version | Graphics & Text | Print | Product List | Glossary On
Versions: 1 2 3 4 5 6 7 8 9 10 11 12 13 14 15 16 17 18 19 20
000
FTUS43 KGRB 011000 AAA
TAFCWA
TAF AMD
KCWA 011026Z 0110/0206 29007KT 6SM -SHRA SCT020 BKN100
      WS012/20035KT
     FM011200 18007KT P6SM VCTS BKN090CB WS012/20035KT
      TEMPO 0112/0116 2SM +SHRA BKN009 OVC015
     FM011600 24010G16KT 6SM BR VCSH SCT009 OVC015
     FM012000 27010G18KT P6SM SCT015 SCT100
      AMD LTD TO CLD VIS AND WIND TIL 011200=

USA.gov is the U.S. government's official web portal to all federal, state and local government web resources and services.